Pagrindinis puslapis
METAR-TAF:

METAR-TAF

Oro uostai :

Fort Stockton-Pecos County Airport

Fort Stockton, Teksasas, Jungtinės Amerikos Valstijos

platuma: 30-54-43N, ilguma: 102-55-00W, Aukštis: 917 m

Dabartinis oras

Ataskaita buvo paskelbta 57 minutes, ne 10:53 UTC
Vėjas 3 kt iš Pietų
Temperatūra 17°C
Drėgmė 77%
Slėgis 1023 hPa
Matomumas: 16.1 km
Giedras dangus

METAR: KFST 291053Z AUTO 17003KT 10SM CLR 17/13 A3022 RMK AO2 SLP189 T01670133

Laikas: 06:50 (11:50 UTC)

Prognozė

Ataskaita buvo paskelbta 30 minutes, ne 11:20 UTC
Prognozė galioja nuo 29 metu 12 UTC su 30 metu 12 UTC
Vėjas 11 kt iš Rytų/Pietryčių
Matomumas: 10 km
Mažai debesys ne aukštis 25000 ft

TAF: KFST 291120Z 2912/3012 12011KT P6SM FEW250

Orai ataskaitas ir orų prognozės (METAR, TAF).

turimą stotys yra geltonos ir raudonos taškus žemėlapyje.

Perkelti pele per norėdami pamatyti stoties vardą.

Tada spustelėkite, norėdami matyti oro stebėjimo ir prognozės.

Norėdami pakeisti žemėlapį: spustelėkite ant žalios mygtukų su juodo kryžiaus žemyn,; žalią mygtuką su brūkšneliu, jei norite nutolinti; arba žalių rodyklių gretimoms žemėlapius.


METAR-TAF: